Flight Track Log - Related Links

Times and Time Zones

All times are in EDT time to prevent confusion due to time zone crossing. See the RPA3253 flight status page for this flight to view local times or setup timezone preferences in your user account.


Time Position Orientation Groundspeed Altitude Reporting Facility
EDT Latitude Longitude Course Direction KTS MPH feet Rate Location/Type
Sat 07:50:12 PM 41.9375 -87.9069 90° East 170 196 1,800  Level Chicago Center
Sat 07:51:14 PM 41.9136 -87.8372 115° Southeast 214 246 3,500 1,839 Climbing Chicago Center
Sat 07:52:16 PM 41.9014 -87.7381 99° East 267 307 5,600 1,902 Climbing Chicago Center
Sat 07:53:17 PM 41.8986 -87.6233 92° East 305 351 7,400 2,439 Climbing Chicago Center
Sat 07:54:00 PM 41.9333 -87.0922 90° East  Level FlightAware Approximate
Sat 07:54:19 PM 41.9089 -87.5133 83° East 301 346 10,600  Level Chicago Center
Sat 07:55:00 PM 41.9333 -86.9301 90° East  Level FlightAware Approximate
Sat 07:55:21 PM 41.9178 -87.4019 84° East 302 348 12,900  Level Chicago Center
Sat 07:56:23 PM 41.9283 -87.2758 84° East 342 394 13,800 1,512 Climbing Chicago Center
Sat 07:57:24 PM 41.9417 -87.1022 84° East 388 447 16,000 2,049 Climbing Chicago Center
Sat 07:58:26 PM 41.9472 -86.9525 87° East 401 461 18,000 2,000 Climbing Chicago Center
Sat 07:59:27 PM 41.9483 -86.8028 89° East 404 465 20,100 1,951 Climbing Chicago Center
Sat 08:00:29 PM 41.9503 -86.6556 89° East 409 471 22,000 1,645 Climbing Chicago Center
Sat 08:01:31 PM 41.9525 -86.5022 89° East 413 475 23,500 1,403 Climbing Chicago Center
Sat 08:02:33 PM 41.9544 -86.3444 89° East 419 482 24,900 1,232 Climbing Chicago Center
Sat 08:04:00 PM 41.8853 -86.1768 120° Southeast  Level FlightAware Approximate
Sat 08:04:36 PM 41.8756 -86.0153 120° Southeast 433 498 27,300  Level Chicago Center
Sat 08:05:38 PM 41.8092 -85.8775 123° Southeast 440 506 28,400 829 Climbing Chicago Center
Sat 08:06:39 PM 41.7425 -85.7381 123° Southeast 443 510 29,000 293 Climbing Chicago Center
Sat 08:07:41 PM 41.6925 -85.5803 113° Southeast 464 534 29,000  Level Chicago Center
Sat 08:08:43 PM 41.6422 -85.3933 110° East 475 547 29,000  Level Chicago Center
Sat 08:09:45 PM 41.5739 -85.2439 121° Southeast 484 557 29,000  Level Chicago Center
Sat 08:10:46 PM 41.4997 -85.0989 124° Southeast 478 550 29,000  Level Chicago Center
Sat 08:11:48 PM 41.4253 -84.9564 125° Southeast 470 541 29,000  Level Chicago Center
Sat 08:12:50 PM 41.3583 -84.8261 124° Southeast 436 502 29,000  Level Chicago Center
Sat 08:13:51 PM 41.2753 -84.6669 125° Southeast 436 502 29,000  Level Chicago Center
Sat 08:14:53 PM 41.2031 -84.5303 125° Southeast 450 518 29,000  Level Chicago Center
Sat 08:15:55 PM 41.1308 -84.3928 125° Southeast 456 525 29,000  Level Chicago Center
Sat 08:16:56 PM 41.0564 -84.2539 125° Southeast 462 532 29,000  Level Chicago Center
Sat 08:17:58 PM 40.9844 -84.1139 124° Southeast 461 531 29,000  Level Chicago Center
Sat 08:19:00 PM 40.9089 -83.9756 126° Southeast 464 534 29,000  Level Chicago Center
Sat 08:20:01 PM 40.8339 -83.8342 125° Southeast 469 540 29,000  Level Chicago Center
Sat 08:21:03 PM 40.7836 -83.6794 113° Southeast 463 533 29,000  Level Chicago Center
Sat 08:22:05 PM 40.7350 -83.4861 108° East 464 534 29,000  Level Chicago Center
Sat 08:23:23 PM 40.6997 -83.2858 103° East 463 533 29,000  Level Indianapolis Center
Sat 08:24:24 PM 40.6703 -83.1250 104° East 459 528 29,000  Level Indianapolis Center
Sat 08:25:25 PM 40.6175 -82.9728 115° Southeast 467 537 29,000  Level Indianapolis Center
Sat 08:26:26 PM 40.5072 -82.8694 145° Southeast 471 542 29,000  Level Indianapolis Center
Sat 08:27:28 PM 40.3681 -82.7947 158° South 477 549 29,000  Level Indianapolis Center
Sat 08:28:29 PM 40.2461 -82.7314 158° South 470 541 29,000  Level Indianapolis Center
Sat 08:29:30 PM 40.1364 -82.6747 158° South 471 542 29,000  Level Indianapolis Center
Sat 08:30:31 PM 40.0108 -82.6086 158° South 479 551 29,000  Level Indianapolis Center
Sat 08:31:32 PM 39.8850 -82.5433 158° South 479 551 29,000  Level Indianapolis Center
Sat 08:32:33 PM 39.7597 -82.4794 159° South 478 550 29,000  Level Indianapolis Center
Sat 08:33:35 PM 39.6178 -82.4058 158° South 467 537 29,000  Level Indianapolis Center
Sat 08:34:36 PM 39.4939 -82.3428 159° South 469 540 29,000  Level Indianapolis Center
Sat 08:35:37 PM 39.3900 -82.2892 158° South 471 542 29,000  Level Indianapolis Center
Sat 08:36:38 PM 39.2681 -82.2286 159° South 471 542 29,000  Level Indianapolis Center
Sat 08:37:39 PM 39.1242 -82.1539 158° South 466 536 29,000  Level Indianapolis Center
Sat 08:38:40 PM 39.0033 -82.0933 159° South 466 536 29,000  Level Indianapolis Center
Sat 08:39:42 PM 38.8839 -82.0344 159° South 463 533 29,000  Level Indianapolis Center
Sat 08:40:43 PM 38.7661 -81.9756 159° South 458 527 29,000  Level Indianapolis Center
Sat 08:41:44 PM 38.6472 -81.9169 159° South 460 529 29,000  Level Indianapolis Center
Sat 08:42:45 PM 38.5292 -81.8583 159° South 460 529 29,000  Level Indianapolis Center
Sat 08:43:46 PM 38.4106 -81.7994 159° South 462 532 29,000  Level Indianapolis Center
Sat 08:44:47 PM 38.2839 -81.7822 174° South 464 534 29,000  Level Indianapolis Center
Sat 08:45:48 PM 38.1556 -81.8067 189° South 468 539 29,000  Level Indianapolis Center
Sat 08:46:49 PM 38.0014 -81.8364 189° South 466 536 29,000  Level Indianapolis Center
Sat 08:47:50 PM 37.8747 -81.8603 188° South 460 529 29,000  Level Indianapolis Center
Sat 08:48:51 PM 37.7611 -81.8822 189° South 460 529 29,000  Level Indianapolis Center
Sat 08:49:52 PM 37.6142 -81.9103 189° South 455 524 29,000  Level Indianapolis Center
Sat 08:50:53 PM 37.4875 -81.9342 189° South 457 526 29,000  Level Indianapolis Center
Sat 08:51:54 PM 37.3628 -81.9572 188° South 453 521 29,000  Level Indianapolis Center
Sat 08:52:55 PM 37.2375 -81.9806 188° South 452 520 29,000  Level Indianapolis Center
Sat 08:53:56 PM 37.1128 -82.0039 188° South 450 518 29,000  Level Indianapolis Center
Sat 08:54:57 PM 36.9892 -82.0275 189° South 447 514 29,000 -590 Level Indianapolis Center
Sat 08:55:58 PM 36.8689 -82.0492 188° South 436 502 27,800 -1,328 Descending Indianapolis Center
Sat 08:56:59 PM 36.7553 -82.0714 189° South 419 482 26,300 -1,475 Descending Indianapolis Center
Sat 08:58:00 PM 36.6419 -82.0922 188° South 410 472 24,800 -1,131 Descending Indianapolis Center
Sat 08:59:01 PM 36.5294 -82.1131 188° South 409 471 24,000 -393 Descending Indianapolis Center
Sat 09:00:02 PM 36.4194 -82.1122 180° South 405 466 24,000  Level Indianapolis Center
Sat 09:01:03 PM 36.3206 -82.0494 153° Southeast 401 461 24,000  Level Indianapolis Center
Sat 09:02:04 PM 36.2186 -81.9833 152° Southeast 410 472 24,000 -885 Level Indianapolis Center
Sat 09:03:05 PM 36.1181 -81.9167 152° Southeast 409 471 22,200 -1,985 Descending Indianapolis Center
Sat 09:04:20 PM 35.9842 -81.8319 153° Southeast 409 471 19,500 -2,044 Descending Atlanta Center
Sat 09:05:20 PM 35.8914 -81.7728 153° Southeast 392 451 17,600 -1,950 Descending Atlanta Center
Sat 09:06:20 PM 35.7964 -81.7114 152° Southeast 381 438 15,600 -1,800 Descending Atlanta Center
Sat 09:07:20 PM 35.7181 -81.6600 152° Southeast 375 432 14,000 -1,800 Descending Atlanta Center
Sat 09:08:20 PM 35.6272 -81.6014 152° Southeast 369 425 12,000 -1,000 Descending Atlanta Center
Sat 09:09:20 PM 35.5589 -81.5167 135° Southeast 357 411 12,000 -200 Level Atlanta Center
Sat 09:10:20 PM 35.4964 -81.4189 128° Southeast 351 404 11,600 -1,000 Descending Atlanta Center
Sat 09:11:20 PM 35.4339 -81.3267 130° Southeast 357 411 10,000 -800 Descending Atlanta Center
Sat 09:12:20 PM 35.3733 -81.2369 130° Southeast 352 405 10,000 -100 Level Atlanta Center
Sat 09:13:20 PM 35.3150 -81.1525 130° Southeast 342 394 9,800 -850 Descending Atlanta Center
Sat 09:14:20 PM 35.2611 -81.0806 133° Southeast 308 354 8,300 -1,550 Descending Atlanta Center
Sat 09:15:20 PM 35.1817 -81.0681 173° South 270 311 6,700 -1,714 Descending Atlanta Center
Sat 09:16:40 PM 35.0750 -81.0567 175° South 270 311 4,300 -1,149 Descending Atlanta Center
Sat 09:17:41 PM 35.0564 -80.9864 108° East 264 304 4,000 -295 Descending Atlanta Center

Login

Don't have an account? Register now (free) for customized features, flight alerts, and more!